sensor_id;sensor_type;location;lat;lon;timestamp;P1;durP1;ratioP1;P2;durP2;ratioP2
9789;SDS011;4934;50.852;8.098;2022-12-26T00:01:24;6.00;;;3.13;;
9789;SDS011;4934;50.852;8.098;2022-12-26T00:03:51;6.88;;;3.25;;
9789;SDS011;4934;50.852;8.098;2022-12-26T00:06:19;6.05;;;2.67;;
9789;SDS011;4934;50.852;8.098;2022-12-26T00:08:46;5.70;;;2.83;;
9789;SDS011;4934;50.852;8.098;2022-12-26T00:11:12;5.68;;;3.00;;
9789;SDS011;4934;50.852;8.098;2022-12-26T00:13:39;7.35;;;3.15;;
9789;SDS011;4934;50.852;8.098;2022-12-26T00:18:35;4.43;;;2.85;;
9789;SDS011;4934;50.852;8.098;2022-12-26T00:21:01;5.38;;;2.83;;
9789;SDS011;4934;50.852;8.098;2022-12-26T00:23:26;8.25;;;3.13;;
9789;SDS011;4934;50.852;8.098;2022-12-26T00:25:52;6.38;;;2.90;;
9789;SDS011;4934;50.852;8.098;2022-12-26T00:28:18;3.55;;;2.30;;
9789;SDS011;4934;50.852;8.098;2022-12-26T00:30:43;5.15;;;2.38;;
9789;SDS011;4934;50.852;8.098;2022-12-26T00:33:09;5.00;;;2.83;;
9789;SDS011;4934;50.852;8.098;2022-12-26T00:35:34;5.55;;;2.47;;
9789;SDS011;4934;50.852;8.098;2022-12-26T00:38:00;5.70;;;2.80;;
9789;SDS011;4934;50.852;8.098;2022-12-26T00:40:25;4.57;;;2.63;;
9789;SDS011;4934;50.852;8.098;2022-12-26T00:42:51;5.32;;;2.97;;
9789;SDS011;4934;50.852;8.098;2022-12-26T00:45:16;3.92;;;2.58;;
9789;SDS011;4934;50.852;8.098;2022-12-26T00:47:42;8.55;;;3.65;;
9789;SDS011;4934;50.852;8.098;2022-12-26T00:50:08;6.57;;;2.90;;
9789;SDS011;4934;50.852;8.098;2022-12-26T00:52:34;6.07;;;2.72;;
9789;SDS011;4934;50.852;8.098;2022-12-26T00:54:59;4.63;;;3.30;;
9789;SDS011;4934;50.852;8.098;2022-12-26T00:57:25;4.22;;;2.47;;
9789;SDS011;4934;50.852;8.098;2022-12-26T00:59:50;7.07;;;2.33;;
9789;SDS011;4934;50.852;8.098;2022-12-26T01:02:16;5.78;;;2.58;;
9789;SDS011;4934;50.852;8.098;2022-12-26T01:05:00;7.05;;;2.90;;
9789;SDS011;4934;50.852;8.098;2022-12-26T01:07:25;4.63;;;2.65;;
9789;SDS011;4934;50.852;8.098;2022-12-26T01:09:51;5.63;;;3.00;;
9789;SDS011;4934;50.852;8.098;2022-12-26T01:12:16;6.05;;;2.47;;
9789;SDS011;4934;50.852;8.098;2022-12-26T01:14:42;5.32;;;2.67;;
9789;SDS011;4934;50.852;8.098;2022-12-26T01:17:08;6.07;;;2.92;;
9789;SDS011;4934;50.852;8.098;2022-12-26T01:19:33;6.32;;;2.97;;
9789;SDS011;4934;50.852;8.098;2022-12-26T01:21:59;9.48;;;2.47;;
9789;SDS011;4934;50.852;8.098;2022-12-26T01:24:25;10.20;;;4.07;;
9789;SDS011;4934;50.852;8.098;2022-12-26T01:26:51;7.43;;;3.13;;
9789;SDS011;4934;50.852;8.098;2022-12-26T01:29:16;4.03;;;2.33;;
9789;SDS011;4934;50.852;8.098;2022-12-26T01:31:42;4.10;;;2.50;;
9789;SDS011;4934;50.852;8.098;2022-12-26T01:34:07;5.97;;;2.65;;
9789;SDS011;4934;50.852;8.098;2022-12-26T01:36:34;5.50;;;2.60;;
9789;SDS011;4934;50.852;8.098;2022-12-26T01:38:59;6.00;;;2.45;;
9789;SDS011;4934;50.852;8.098;2022-12-26T01:41:25;8.85;;;3.40;;
9789;SDS011;4934;50.852;8.098;2022-12-26T01:43:58;4.75;;;2.63;;
9789;SDS011;4934;50.852;8.098;2022-12-26T01:49:08;4.78;;;2.22;;
9789;SDS011;4934;50.852;8.098;2022-12-26T01:51:42;7.55;;;3.05;;
9789;SDS011;4934;50.852;8.098;2022-12-26T01:54:12;5.90;;;2.58;;
9789;SDS011;4934;50.852;8.098;2022-12-26T01:56:39;9.05;;;3.03;;
9789;SDS011;4934;50.852;8.098;2022-12-26T01:59:10;6.55;;;2.63;;
9789;SDS011;4934;50.852;8.098;2022-12-26T02:01:42;4.68;;;2.28;;
9789;SDS011;4934;50.852;8.098;2022-12-26T02:04:13;5.28;;;2.53;;
9789;SDS011;4934;50.852;8.098;2022-12-26T02:09:27;7.93;;;2.60;;
9789;SDS011;4934;50.852;8.098;2022-12-26T02:11:55;4.80;;;2.60;;
9789;SDS011;4934;50.852;8.098;2022-12-26T02:14:26;5.38;;;2.40;;
9789;SDS011;4934;50.852;8.098;2022-12-26T02:16:51;5.22;;;2.72;;
9789;SDS011;4934;50.852;8.098;2022-12-26T02:30:56;6.80;;;2.70;;
9789;SDS011;4934;50.852;8.098;2022-12-26T02:33:36;8.05;;;3.05;;
9789;SDS011;4934;50.852;8.098;2022-12-26T02:36:16;9.35;;;2.90;;
9789;SDS011;4934;50.852;8.098;2022-12-26T02:39:13;7.63;;;3.13;;
9789;SDS011;4934;50.852;8.098;2022-12-26T02:41:45;5.13;;;2.75;;
9789;SDS011;4934;50.852;8.098;2022-12-26T02:44:33;6.15;;;2.80;;
9789;SDS011;4934;50.852;8.098;2022-12-26T02:53:03;10.95;;;2.55;;
9789;SDS011;4934;50.852;8.098;2022-12-26T02:56:26;9.38;;;2.88;;
9789;SDS011;4934;50.852;8.098;2022-12-26T02:59:19;8.40;;;3.25;;
9789;SDS011;4934;50.852;8.098;2022-12-26T03:02:30;10.20;;;3.83;;
9789;SDS011;4934;50.852;8.098;2022-12-26T03:05:31;6.75;;;2.90;;
9789;SDS011;4934;50.852;8.098;2022-12-26T03:08:24;7.75;;;2.97;;
9789;SDS011;4934;50.852;8.098;2022-12-26T03:11:19;6.80;;;3.00;;
9789;SDS011;4934;50.852;8.098;2022-12-26T03:14:10;11.65;;;3.10;;
9789;SDS011;4934;50.852;8.098;2022-12-26T03:16:42;7.32;;;3.03;;
9789;SDS011;4934;50.852;8.098;2022-12-26T03:19:30;7.63;;;2.55;;
9789;SDS011;4934;50.852;8.098;2022-12-26T03:21:57;6.63;;;3.58;;
9789;SDS011;4934;50.852;8.098;2022-12-26T03:24:24;10.82;;;2.83;;
9789;SDS011;4934;50.852;8.098;2022-12-26T03:27:11;5.78;;;2.58;;
9789;SDS011;4934;50.852;8.098;2022-12-26T03:29:37;5.68;;;3.03;;
9789;SDS011;4934;50.852;8.098;2022-12-26T03:32:21;8.27;;;2.80;;
9789;SDS011;4934;50.852;8.098;2022-12-26T03:34:46;7.15;;;2.70;;
9789;SDS011;4934;50.852;8.098;2022-12-26T03:46:16;6.05;;;2.38;;
9789;SDS011;4934;50.852;8.098;2022-12-26T03:55:21;7.78;;;3.67;;
9789;SDS011;4934;50.852;8.098;2022-12-26T03:58:27;5.22;;;2.60;;
9789;SDS011;4934;50.852;8.098;2022-12-26T04:01:45;10.05;;;2.97;;
9789;SDS011;4934;50.852;8.098;2022-12-26T04:04:32;6.93;;;2.90;;
9789;SDS011;4934;50.852;8.098;2022-12-26T04:07:20;5.18;;;2.70;;
9789;SDS011;4934;50.852;8.098;2022-12-26T04:10:10;5.25;;;2.60;;
9789;SDS011;4934;50.852;8.098;2022-12-26T04:12:58;3.65;;;2.20;;
9789;SDS011;4934;50.852;8.098;2022-12-26T04:18:40;9.60;;;2.47;;
9789;SDS011;4934;50.852;8.098;2022-12-26T04:21:38;4.63;;;2.00;;
9789;SDS011;4934;50.852;8.098;2022-12-26T04:24:27;6.53;;;2.80;;
9789;SDS011;4934;50.852;8.098;2022-12-26T04:27:18;3.72;;;2.33;;
9789;SDS011;4934;50.852;8.098;2022-12-26T04:30:06;8.20;;;3.83;;
9789;SDS011;4934;50.852;8.098;2022-12-26T04:32:52;6.05;;;3.10;;
9789;SDS011;4934;50.852;8.098;2022-12-26T04:35:44;4.28;;;2.25;;
9789;SDS011;4934;50.852;8.098;2022-12-26T04:38:34;6.88;;;2.20;;
9789;SDS011;4934;50.852;8.098;2022-12-26T04:41:29;5.22;;;2.40;;
9789;SDS011;4934;50.852;8.098;2022-12-26T04:44:16;4.95;;;2.17;;
9789;SDS011;4934;50.852;8.098;2022-12-26T04:46:47;4.38;;;2.70;;
9789;SDS011;4934;50.852;8.098;2022-12-26T04:49:14;8.00;;;3.05;;
9789;SDS011;4934;50.852;8.098;2022-12-26T04:52:00;4.70;;;2.60;;
9789;SDS011;4934;50.852;8.098;2022-12-26T04:54:29;3.97;;;2.42;;
9789;SDS011;4934;50.852;8.098;2022-12-26T04:56:54;5.63;;;2.28;;
9789;SDS011;4934;50.852;8.098;2022-12-26T04:59:21;7.13;;;2.53;;
9789;SDS011;4934;50.852;8.098;2022-12-26T05:01:46;6.43;;;2.38;;
9789;SDS011;4934;50.852;8.098;2022-12-26T05:04:31;7.25;;;2.58;;
9789;SDS011;4934;50.852;8.098;2022-12-26T05:07:16;5.10;;;2.75;;
9789;SDS011;4934;50.852;8.098;2022-12-26T05:10:05;6.13;;;2.90;;
9789;SDS011;4934;50.852;8.098;2022-12-26T05:12:32;8.05;;;3.03;;
9789;SDS011;4934;50.852;8.098;2022-12-26T05:14:58;7.00;;;2.75;;
9789;SDS011;4934;50.852;8.098;2022-12-26T05:17:25;6.68;;;2.80;;
9789;SDS011;4934;50.852;8.098;2022-12-26T05:20:10;11.15;;;2.95;;
9789;SDS011;4934;50.852;8.098;2022-12-26T05:22:55;6.18;;;2.50;;
9789;SDS011;4934;50.852;8.098;2022-12-26T05:25:41;8.30;;;2.70;;
9789;SDS011;4934;50.852;8.098;2022-12-26T05:28:27;5.55;;;2.70;;
9789;SDS011;4934;50.852;8.098;2022-12-26T05:31:06;5.50;;;2.78;;
9789;SDS011;4934;50.852;8.098;2022-12-26T05:33:33;10.10;;;2.40;;
9789;SDS011;4934;50.852;8.098;2022-12-26T05:36:18;8.15;;;3.17;;
9789;SDS011;4934;50.852;8.098;2022-12-26T05:38:46;6.13;;;3.20;;
9789;SDS011;4934;50.852;8.098;2022-12-26T05:41:12;9.82;;;3.35;;
9789;SDS011;4934;50.852;8.098;2022-12-26T05:43:38;5.32;;;2.83;;
9789;SDS011;4934;50.852;8.098;2022-12-26T05:46:04;9.65;;;3.05;;
9789;SDS011;4934;50.852;8.098;2022-12-26T05:48:29;7.20;;;3.05;;
9789;SDS011;4934;50.852;8.098;2022-12-26T05:50:58;6.88;;;2.42;;
9789;SDS011;4934;50.852;8.098;2022-12-26T05:53:25;6.70;;;3.13;;
9789;SDS011;4934;50.852;8.098;2022-12-26T05:55:51;5.13;;;2.75;;
9789;SDS011;4934;50.852;8.098;2022-12-26T05:58:17;4.38;;;2.65;;
9789;SDS011;4934;50.852;8.098;2022-12-26T06:00:43;8.07;;;2.95;;
9789;SDS011;4934;50.852;8.098;2022-12-26T06:03:08;7.55;;;3.38;;
9789;SDS011;4934;50.852;8.098;2022-12-26T06:05:34;5.95;;;2.67;;
9789;SDS011;4934;50.852;8.098;2022-12-26T06:07:59;6.93;;;2.55;;
9789;SDS011;4934;50.852;8.098;2022-12-26T06:10:25;6.45;;;3.03;;
9789;SDS011;4934;50.852;8.098;2022-12-26T06:12:53;5.28;;;2.22;;
9789;SDS011;4934;50.852;8.098;2022-12-26T06:15:19;5.68;;;2.33;;
9789;SDS011;4934;50.852;8.098;2022-12-26T06:17:46;5.55;;;2.50;;
9789;SDS011;4934;50.852;8.098;2022-12-26T06:20:11;8.05;;;2.38;;
9789;SDS011;4934;50.852;8.098;2022-12-26T06:22:37;8.07;;;2.47;;
9789;SDS011;4934;50.852;8.098;2022-12-26T06:25:02;4.38;;;2.25;;
9789;SDS011;4934;50.852;8.098;2022-12-26T06:27:28;7.05;;;2.90;;
9789;SDS011;4934;50.852;8.098;2022-12-26T06:29:54;7.72;;;2.88;;
9789;SDS011;4934;50.852;8.098;2022-12-26T06:32:19;7.47;;;2.90;;
9789;SDS011;4934;50.852;8.098;2022-12-26T06:34:46;6.90;;;2.85;;
9789;SDS011;4934;50.852;8.098;2022-12-26T06:37:12;3.97;;;2.50;;
9789;SDS011;4934;50.852;8.098;2022-12-26T06:39:37;8.30;;;2.75;;
9789;SDS011;4934;50.852;8.098;2022-12-26T06:42:03;11.10;;;3.90;;
9789;SDS011;4934;50.852;8.098;2022-12-26T06:44:29;12.52;;;4.72;;
9789;SDS011;4934;50.852;8.098;2022-12-26T06:46:54;9.00;;;3.80;;
9789;SDS011;4934;50.852;8.098;2022-12-26T06:49:20;10.80;;;3.80;;
9789;SDS011;4934;50.852;8.098;2022-12-26T06:51:46;4.97;;;2.90;;
9789;SDS011;4934;50.852;8.098;2022-12-26T06:54:11;14.90;;;10.32;;
9789;SDS011;4934;50.852;8.098;2022-12-26T06:56:37;22.45;;;10.15;;
9789;SDS011;4934;50.852;8.098;2022-12-26T06:59:03;9.00;;;4.22;;
9789;SDS011;4934;50.852;8.098;2022-12-26T07:01:31;8.18;;;2.72;;
9789;SDS011;4934;50.852;8.098;2022-12-26T07:03:58;7.03;;;2.95;;
9789;SDS011;4934;50.852;8.098;2022-12-26T07:06:32;7.03;;;3.08;;
9789;SDS011;4934;50.852;8.098;2022-12-26T07:09:06;6.47;;;3.10;;
9789;SDS011;4934;50.852;8.098;2022-12-26T07:11:35;8.23;;;6.63;;
9789;SDS011;4934;50.852;8.098;2022-12-26T07:14:04;8.75;;;6.13;;
9789;SDS011;4934;50.852;8.098;2022-12-26T07:16:30;7.43;;;3.22;;
9789;SDS011;4934;50.852;8.098;2022-12-26T07:18:57;2.95;;;1.88;;
9789;SDS011;4934;50.852;8.098;2022-12-26T07:21:23;1.42;;;0.68;;
9789;SDS011;4934;50.852;8.098;2022-12-26T07:23:50;2.97;;;0.80;;
9789;SDS011;4934;50.852;8.098;2022-12-26T07:26:16;1.45;;;0.77;;
9789;SDS011;4934;50.852;8.098;2022-12-26T07:28:42;1.05;;;0.55;;
9789;SDS011;4934;50.852;8.098;2022-12-26T07:31:08;1.95;;;0.77;;
9789;SDS011;4934;50.852;8.098;2022-12-26T07:33:33;2.22;;;0.60;;
9789;SDS011;4934;50.852;8.098;2022-12-26T07:36:00;3.22;;;0.57;;
9789;SDS011;4934;50.852;8.098;2022-12-26T07:38:26;2.40;;;0.70;;
9789;SDS011;4934;50.852;8.098;2022-12-26T07:40:55;1.40;;;0.70;;
9789;SDS011;4934;50.852;8.098;2022-12-26T07:43:21;1.15;;;0.80;;
9789;SDS011;4934;50.852;8.098;2022-12-26T07:45:47;3.20;;;1.30;;
9789;SDS011;4934;50.852;8.098;2022-12-26T07:48:13;11.30;;;2.65;;
9789;SDS011;4934;50.852;8.098;2022-12-26T07:50:38;3.30;;;0.98;;
9789;SDS011;4934;50.852;8.098;2022-12-26T07:53:04;1.67;;;0.93;;
9789;SDS011;4934;50.852;8.098;2022-12-26T07:55:30;0.98;;;0.50;;
9789;SDS011;4934;50.852;8.098;2022-12-26T07:57:55;2.30;;;0.90;;
9789;SDS011;4934;50.852;8.098;2022-12-26T08:00:21;0.82;;;0.50;;
9789;SDS011;4934;50.852;8.098;2022-12-26T08:02:47;0.82;;;0.40;;
9789;SDS011;4934;50.852;8.098;2022-12-26T08:05:13;2.28;;;1.05;;
9789;SDS011;4934;50.852;8.098;2022-12-26T08:07:45;3.78;;;1.50;;
9789;SDS011;4934;50.852;8.098;2022-12-26T08:10:12;1.23;;;0.68;;
9789;SDS011;4934;50.852;8.098;2022-12-26T08:12:37;2.33;;;1.17;;
9789;SDS011;4934;50.852;8.098;2022-12-26T08:15:03;2.03;;;1.10;;
9789;SDS011;4934;50.852;8.098;2022-12-26T08:17:29;2.35;;;1.27;;
9789;SDS011;4934;50.852;8.098;2022-12-26T08:19:56;2.53;;;0.70;;
9789;SDS011;4934;50.852;8.098;2022-12-26T08:22:22;0.68;;;0.50;;
9789;SDS011;4934;50.852;8.098;2022-12-26T08:24:47;1.45;;;0.80;;
9789;SDS011;4934;50.852;8.098;2022-12-26T08:27:13;0.93;;;0.50;;
9789;SDS011;4934;50.852;8.098;2022-12-26T08:29:40;0.82;;;0.40;;
9789;SDS011;4934;50.852;8.098;2022-12-26T08:32:05;0.68;;;0.50;;
9789;SDS011;4934;50.852;8.098;2022-12-26T08:34:32;1.35;;;0.85;;
9789;SDS011;4934;50.852;8.098;2022-12-26T08:36:58;0.70;;;0.50;;
9789;SDS011;4934;50.852;8.098;2022-12-26T08:39:24;0.75;;;0.50;;
9789;SDS011;4934;50.852;8.098;2022-12-26T08:41:50;2.55;;;1.45;;
9789;SDS011;4934;50.852;8.098;2022-12-26T08:44:16;2.88;;;1.20;;
9789;SDS011;4934;50.852;8.098;2022-12-26T08:46:42;1.05;;;0.50;;
9789;SDS011;4934;50.852;8.098;2022-12-26T08:49:08;1.13;;;0.65;;
9789;SDS011;4934;50.852;8.098;2022-12-26T08:51:34;1.15;;;0.73;;
9789;SDS011;4934;50.852;8.098;2022-12-26T08:53:59;2.40;;;1.30;;
9789;SDS011;4934;50.852;8.098;2022-12-26T08:56:25;5.35;;;3.10;;
9789;SDS011;4934;50.852;8.098;2022-12-26T08:58:52;4.28;;;1.95;;
9789;SDS011;4934;50.852;8.098;2022-12-26T09:01:20;5.32;;;3.90;;
9789;SDS011;4934;50.852;8.098;2022-12-26T09:03:47;2.00;;;1.30;;
9789;SDS011;4934;50.852;8.098;2022-12-26T09:06:16;5.35;;;1.30;;
9789;SDS011;4934;50.852;8.098;2022-12-26T09:08:41;3.10;;;0.82;;
9789;SDS011;4934;50.852;8.098;2022-12-26T09:11:12;2.38;;;1.30;;
9789;SDS011;4934;50.852;8.098;2022-12-26T09:13:40;2.22;;;0.95;;
9789;SDS011;4934;50.852;8.098;2022-12-26T09:18:37;1.85;;;1.10;;
9789;SDS011;4934;50.852;8.098;2022-12-26T09:21:04;2.35;;;1.40;;
9789;SDS011;4934;50.852;8.098;2022-12-26T09:23:31;5.32;;;1.13;;
9789;SDS011;4934;50.852;8.098;2022-12-26T09:26:07;1.98;;;1.15;;
9789;SDS011;4934;50.852;8.098;2022-12-26T09:28:37;4.40;;;1.42;;
9789;SDS011;4934;50.852;8.098;2022-12-26T09:31:05;2.72;;;1.52;;
9789;SDS011;4934;50.852;8.098;2022-12-26T09:33:32;3.70;;;1.75;;
9789;SDS011;4934;50.852;8.098;2022-12-26T09:36:02;1.80;;;1.20;;
9789;SDS011;4934;50.852;8.098;2022-12-26T09:43:49;2.10;;;1.58;;
9789;SDS011;4934;50.852;8.098;2022-12-26T09:49:31;2.80;;;1.33;;
9789;SDS011;4934;50.852;8.098;2022-12-26T09:52:03;3.08;;;1.50;;
9789;SDS011;4934;50.852;8.098;2022-12-26T09:54:48;3.10;;;1.50;;
9789;SDS011;4934;50.852;8.098;2022-12-26T09:57:19;4.13;;;1.70;;
9789;SDS011;4934;50.852;8.098;2022-12-26T10:00:04;3.97;;;1.50;;
9789;SDS011;4934;50.852;8.098;2022-12-26T10:02:30;2.13;;;1.27;;
9789;SDS011;4934;50.852;8.098;2022-12-26T10:04:57;6.43;;;1.85;;
9789;SDS011;4934;50.852;8.098;2022-12-26T10:07:28;3.90;;;1.55;;
9789;SDS011;4934;50.852;8.098;2022-12-26T10:12:35;3.97;;;1.20;;
9789;SDS011;4934;50.852;8.098;2022-12-26T10:18:03;2.75;;;1.40;;
9789;SDS011;4934;50.852;8.098;2022-12-26T10:20:44;5.95;;;1.60;;
9789;SDS011;4934;50.852;8.098;2022-12-26T10:27:00;2.72;;;1.42;;
9789;SDS011;4934;50.852;8.098;2022-12-26T10:29:23;4.50;;;1.85;;
9789;SDS011;4934;50.852;8.098;2022-12-26T10:31:59;3.17;;;1.88;;
9789;SDS011;4934;50.852;8.098;2022-12-26T10:34:41;3.80;;;2.92;;
9789;SDS011;4934;50.852;8.098;2022-12-26T10:37:25;6.38;;;4.05;;
9789;SDS011;4934;50.852;8.098;2022-12-26T10:39:55;4.25;;;2.25;;
9789;SDS011;4934;50.852;8.098;2022-12-26T10:42:40;2.47;;;1.50;;
9789;SDS011;4934;50.852;8.098;2022-12-26T10:45:44;8.25;;;3.20;;
9789;SDS011;4934;50.852;8.098;2022-12-26T10:48:02;4.05;;;1.27;;
9789;SDS011;4934;50.852;8.098;2022-12-26T10:50:28;4.32;;;1.30;;
9789;SDS011;4934;50.852;8.098;2022-12-26T10:52:57;3.92;;;1.60;;
9789;SDS011;4934;50.852;8.098;2022-12-26T10:55:25;3.88;;;1.42;;
9789;SDS011;4934;50.852;8.098;2022-12-26T10:57:57;2.42;;;1.00;;
9789;SDS011;4934;50.852;8.098;2022-12-26T11:00:34;2.88;;;1.17;;
9789;SDS011;4934;50.852;8.098;2022-12-26T11:03:07;1.70;;;1.15;;
9789;SDS011;4934;50.852;8.098;2022-12-26T11:05:38;1.50;;;0.95;;
9789;SDS011;4934;50.852;8.098;2022-12-26T11:10:38;4.40;;;2.05;;
9789;SDS011;4934;50.852;8.098;2022-12-26T11:13:16;2.55;;;1.30;;
9789;SDS011;4934;50.852;8.098;2022-12-26T11:15:47;4.20;;;1.58;;
9789;SDS011;4934;50.852;8.098;2022-12-26T11:18:16;2.72;;;1.25;;
9789;SDS011;4934;50.852;8.098;2022-12-26T11:20:46;1.95;;;1.05;;
9789;SDS011;4934;50.852;8.098;2022-12-26T11:23:17;1.65;;;1.17;;
9789;SDS011;4934;50.852;8.098;2022-12-26T11:25:51;2.42;;;1.42;;
9789;SDS011;4934;50.852;8.098;2022-12-26T11:28:32;5.07;;;1.30;;
9789;SDS011;4934;50.852;8.098;2022-12-26T11:31:00;4.07;;;2.05;;
9789;SDS011;4934;50.852;8.098;2022-12-26T11:36:04;1.90;;;1.00;;
9789;SDS011;4934;50.852;8.098;2022-12-26T11:38:39;2.63;;;0.90;;
9789;SDS011;4934;50.852;8.098;2022-12-26T11:41:11;3.03;;;1.40;;
9789;SDS011;4934;50.852;8.098;2022-12-26T11:46:37;2.35;;;0.93;;
9789;SDS011;4934;50.852;8.098;2022-12-26T11:49:06;5.25;;;1.90;;
9789;SDS011;4934;50.852;8.098;2022-12-26T11:51:47;3.15;;;1.23;;
9789;SDS011;4934;50.852;8.098;2022-12-26T11:54:21;3.90;;;1.60;;
9789;SDS011;4934;50.852;8.098;2022-12-26T11:57:27;4.38;;;1.45;;
9789;SDS011;4934;50.852;8.098;2022-12-26T11:59:47;2.72;;;1.33;;
9789;SDS011;4934;50.852;8.098;2022-12-26T12:04:39;2.30;;;1.38;;
9789;SDS011;4934;50.852;8.098;2022-12-26T12:07:11;2.60;;;1.42;;
9789;SDS011;4934;50.852;8.098;2022-12-26T12:09:58;2.95;;;1.00;;
9789;SDS011;4934;50.852;8.098;2022-12-26T12:13:00;3.20;;;1.23;;
9789;SDS011;4934;50.852;8.098;2022-12-26T12:18:29;2.90;;;1.50;;
9789;SDS011;4934;50.852;8.098;2022-12-26T12:29:34;2.13;;;1.40;;
9789;SDS011;4934;50.852;8.098;2022-12-26T12:32:29;6.25;;;1.60;;
9789;SDS011;4934;50.852;8.098;2022-12-26T12:35:15;4.25;;;1.50;;
9789;SDS011;4934;50.852;8.098;2022-12-26T12:37:59;5.90;;;2.65;;
9789;SDS011;4934;50.852;8.098;2022-12-26T12:54:45;6.18;;;1.77;;
9789;SDS011;4934;50.852;8.098;2022-12-26T13:02:58;6.38;;;1.05;;
9789;SDS011;4934;50.852;8.098;2022-12-26T13:05:18;3.13;;;1.10;;
9789;SDS011;4934;50.852;8.098;2022-12-26T13:07:56;2.00;;;1.20;;
9789;SDS011;4934;50.852;8.098;2022-12-26T13:10:29;2.63;;;1.00;;
9789;SDS011;4934;50.852;8.098;2022-12-26T13:12:57;79.63;;;22.70;;
9789;SDS011;4934;50.852;8.098;2022-12-26T13:15:31;10.48;;;3.80;;
9789;SDS011;4934;50.852;8.098;2022-12-26T13:20:49;1.33;;;1.00;;
9789;SDS011;4934;50.852;8.098;2022-12-26T13:23:24;3.05;;;1.65;;
9789;SDS011;4934;50.852;8.098;2022-12-26T13:26:18;4.22;;;1.80;;
9789;SDS011;4934;50.852;8.098;2022-12-26T13:31:36;3.28;;;1.00;;
9789;SDS011;4934;50.852;8.098;2022-12-26T13:34:04;2.67;;;1.05;;
9789;SDS011;4934;50.852;8.098;2022-12-26T13:36:36;4.22;;;1.30;;
9789;SDS011;4934;50.852;8.098;2022-12-26T13:41:36;5.53;;;1.30;;
9789;SDS011;4934;50.852;8.098;2022-12-26T13:44:28;3.22;;;1.17;;
9789;SDS011;4934;50.852;8.098;2022-12-26T13:46:55;3.92;;;1.10;;
9789;SDS011;4934;50.852;8.098;2022-12-26T14:08:09;11.50;;;3.38;;
9789;SDS011;4934;50.852;8.098;2022-12-26T14:19:08;4.40;;;1.00;;
9789;SDS011;4934;50.852;8.098;2022-12-26T14:21:45;3.42;;;1.13;;
9789;SDS011;4934;50.852;8.098;2022-12-26T14:27:32;3.03;;;1.00;;
9789;SDS011;4934;50.852;8.098;2022-12-26T14:30:21;1.25;;;0.85;;
9789;SDS011;4934;50.852;8.098;2022-12-26T14:41:12;5.03;;;1.30;;
9789;SDS011;4934;50.852;8.098;2022-12-26T14:44:09;5.00;;;1.55;;
9789;SDS011;4934;50.852;8.098;2022-12-26T14:49:22;6.60;;;1.52;;
9789;SDS011;4934;50.852;8.098;2022-12-26T14:54:48;2.10;;;1.17;;
9789;SDS011;4934;50.852;8.098;2022-12-26T15:02:47;5.13;;;1.98;;
9789;SDS011;4934;50.852;8.098;2022-12-26T15:05:27;6.47;;;1.77;;
9789;SDS011;4934;50.852;8.098;2022-12-26T15:25:26;3.85;;;1.20;;
9789;SDS011;4934;50.852;8.098;2022-12-26T15:28:04;1.73;;;1.02;;
9789;SDS011;4934;50.852;8.098;2022-12-26T15:36:56;2.00;;;0.70;;
9789;SDS011;4934;50.852;8.098;2022-12-26T15:42:07;1.00;;;0.70;;
9789;SDS011;4934;50.852;8.098;2022-12-26T15:50:42;1.38;;;0.70;;
9789;SDS011;4934;50.852;8.098;2022-12-26T16:00:59;20.90;;;8.73;;
9789;SDS011;4934;50.852;8.098;2022-12-26T16:03:44;3.67;;;2.30;;
9789;SDS011;4934;50.852;8.098;2022-12-26T16:06:25;10.27;;;6.28;;
9789;SDS011;4934;50.852;8.098;2022-12-26T16:09:08;10.27;;;7.65;;
9789;SDS011;4934;50.852;8.098;2022-12-26T16:12:01;3.63;;;2.63;;
9789;SDS011;4934;50.852;8.098;2022-12-26T16:14:41;4.60;;;2.58;;
9789;SDS011;4934;50.852;8.098;2022-12-26T16:17:08;2.95;;;1.95;;
9789;SDS011;4934;50.852;8.098;2022-12-26T16:19:37;4.68;;;3.03;;
9789;SDS011;4934;50.852;8.098;2022-12-26T16:22:04;6.38;;;2.72;;
9789;SDS011;4934;50.852;8.098;2022-12-26T16:24:50;6.18;;;3.05;;
9789;SDS011;4934;50.852;8.098;2022-12-26T16:27:18;8.35;;;3.03;;
9789;SDS011;4934;50.852;8.098;2022-12-26T16:29:47;7.45;;;3.20;;
9789;SDS011;4934;50.852;8.098;2022-12-26T16:32:16;6.93;;;3.53;;
9789;SDS011;4934;50.852;8.098;2022-12-26T16:34:44;12.43;;;4.60;;
9789;SDS011;4934;50.852;8.098;2022-12-26T16:37:18;5.40;;;2.92;;
9789;SDS011;4934;50.852;8.098;2022-12-26T16:40:05;4.88;;;2.35;;
9789;SDS011;4934;50.852;8.098;2022-12-26T16:42:40;6.20;;;2.50;;
9789;SDS011;4934;50.852;8.098;2022-12-26T16:45:13;6.65;;;2.80;;
9789;SDS011;4934;50.852;8.098;2022-12-26T16:47:42;6.63;;;3.08;;
9789;SDS011;4934;50.852;8.098;2022-12-26T16:50:12;13.18;;;3.17;;
9789;SDS011;4934;50.852;8.098;2022-12-26T16:52:40;9.32;;;3.35;;
9789;SDS011;4934;50.852;8.098;2022-12-26T16:58:21;9.00;;;2.20;;
9789;SDS011;4934;50.852;8.098;2022-12-26T17:00:53;4.93;;;1.80;;
9789;SDS011;4934;50.852;8.098;2022-12-26T17:03:55;5.57;;;1.75;;
9789;SDS011;4934;50.852;8.098;2022-12-26T17:09:12;8.00;;;1.70;;
9789;SDS011;4934;50.852;8.098;2022-12-26T17:11:51;2.90;;;1.40;;
9789;SDS011;4934;50.852;8.098;2022-12-26T17:14:24;5.43;;;1.98;;
9789;SDS011;4934;50.852;8.098;2022-12-26T17:16:59;19.90;;;2.45;;
9789;SDS011;4934;50.852;8.098;2022-12-26T17:19:27;4.32;;;2.10;;
9789;SDS011;4934;50.852;8.098;2022-12-26T17:24:43;9.48;;;2.20;;
9789;SDS011;4934;50.852;8.098;2022-12-26T17:32:25;5.25;;;2.72;;
9789;SDS011;4934;50.852;8.098;2022-12-26T17:34:54;14.07;;;5.68;;
9789;SDS011;4934;50.852;8.098;2022-12-26T17:37:24;6.97;;;3.22;;
9789;SDS011;4934;50.852;8.098;2022-12-26T17:39:59;11.48;;;3.88;;
9789;SDS011;4934;50.852;8.098;2022-12-26T17:42:49;9.52;;;3.75;;
9789;SDS011;4934;50.852;8.098;2022-12-26T17:45:21;7.55;;;3.88;;
9789;SDS011;4934;50.852;8.098;2022-12-26T17:47:49;6.88;;;3.75;;
9789;SDS011;4934;50.852;8.098;2022-12-26T17:50:16;7.80;;;3.80;;
9789;SDS011;4934;50.852;8.098;2022-12-26T17:52:42;9.40;;;3.88;;
9789;SDS011;4934;50.852;8.098;2022-12-26T17:55:16;9.65;;;3.67;;
9789;SDS011;4934;50.852;8.098;2022-12-26T17:57:45;9.88;;;4.32;;
9789;SDS011;4934;50.852;8.098;2022-12-26T18:00:14;8.60;;;3.42;;
9789;SDS011;4934;50.852;8.098;2022-12-26T18:02:42;11.68;;;4.90;;
9789;SDS011;4934;50.852;8.098;2022-12-26T18:05:08;8.90;;;3.92;;
9789;SDS011;4934;50.852;8.098;2022-12-26T18:07:33;13.13;;;5.55;;
9789;SDS011;4934;50.852;8.098;2022-12-26T18:10:00;9.65;;;4.88;;
9789;SDS011;4934;50.852;8.098;2022-12-26T18:12:26;10.25;;;4.03;;
9789;SDS011;4934;50.852;8.098;2022-12-26T18:14:52;11.18;;;4.88;;
9789;SDS011;4934;50.852;8.098;2022-12-26T18:17:17;10.68;;;4.68;;
9789;SDS011;4934;50.852;8.098;2022-12-26T18:19:44;12.48;;;5.30;;
9789;SDS011;4934;50.852;8.098;2022-12-26T18:22:10;12.48;;;5.15;;
9789;SDS011;4934;50.852;8.098;2022-12-26T18:24:38;11.45;;;5.10;;
9789;SDS011;4934;50.852;8.098;2022-12-26T18:27:03;16.80;;;6.10;;
9789;SDS011;4934;50.852;8.098;2022-12-26T18:29:29;14.23;;;6.13;;
9789;SDS011;4934;50.852;8.098;2022-12-26T18:31:54;14.88;;;6.50;;
9789;SDS011;4934;50.852;8.098;2022-12-26T18:34:20;11.88;;;5.22;;
9789;SDS011;4934;50.852;8.098;2022-12-26T18:36:46;19.55;;;7.35;;
9789;SDS011;4934;50.852;8.098;2022-12-26T18:39:12;18.67;;;6.53;;
9789;SDS011;4934;50.852;8.098;2022-12-26T18:41:39;13.20;;;5.35;;
9789;SDS011;4934;50.852;8.098;2022-12-26T18:44:04;20.35;;;7.00;;
9789;SDS011;4934;50.852;8.098;2022-12-26T18:46:30;17.08;;;6.85;;
9789;SDS011;4934;50.852;8.098;2022-12-26T18:48:56;26.70;;;11.45;;
9789;SDS011;4934;50.852;8.098;2022-12-26T18:51:22;24.80;;;9.38;;
9789;SDS011;4934;50.852;8.098;2022-12-26T18:53:48;18.58;;;7.97;;
9789;SDS011;4934;50.852;8.098;2022-12-26T18:56:15;22.52;;;9.73;;
9789;SDS011;4934;50.852;8.098;2022-12-26T18:58:42;22.73;;;10.50;;
9789;SDS011;4934;50.852;8.098;2022-12-26T19:01:12;24.70;;;7.15;;
9789;SDS011;4934;50.852;8.098;2022-12-26T19:03:39;21.30;;;9.85;;
9789;SDS011;4934;50.852;8.098;2022-12-26T19:06:07;17.58;;;7.85;;
9789;SDS011;4934;50.852;8.098;2022-12-26T19:08:37;15.48;;;7.65;;
9789;SDS011;4934;50.852;8.098;2022-12-26T19:11:03;16.90;;;7.85;;
9789;SDS011;4934;50.852;8.098;2022-12-26T19:13:29;16.85;;;7.20;;
9789;SDS011;4934;50.852;8.098;2022-12-26T19:15:55;18.67;;;7.95;;
9789;SDS011;4934;50.852;8.098;2022-12-26T19:18:20;15.10;;;8.20;;
9789;SDS011;4934;50.852;8.098;2022-12-26T19:20:46;18.50;;;8.55;;